Time;durP1;ratioP1;P1;durP2;ratioP2;P2;SDS_P1;SDS_P2;PMS_P1;PMS_P2;Temp;Humidity;BMP_temperature;BMP_pressure;BME280_temperature;BME280_humidity;BME280_pressure;Samples;Min_cycle;Max_cycle;Signal;HPM_P1;HPM_P2
2023/06/21 00:00:11;;;;;;;8.50;3.60;;;16.30;99.90;;;;;;5077446;28;20056;-60
2023/06/21 00:02:44;;;;;;;8.95;3.92;;;16.20;99.90;;;;;;5047295;28;20041;-60
2023/06/21 00:05:12;;;;;;;7.28;3.55;;;16.10;99.90;;;;;;5062778;28;20052;-68
2023/06/21 00:07:40;;;;;;;7.60;3.72;;;16.10;99.90;;;;;;5067437;28;20052;-68
2023/06/21 00:10:08;;;;;;;6.53;3.63;;;16.10;99.90;;;;;;5065036;28;20048;-67
2023/06/21 00:12:36;;;;;;;4.05;2.75;;;16.10;99.90;;;;;;5046949;28;20064;-67
2023/06/21 00:15:04;;;;;;;9.10;2.95;;;16.10;99.90;;;;;;5063659;28;20395;-67
2023/06/21 00:17:32;;;;;;;9.13;2.80;;;16.10;99.90;;;;;;5066200;28;20049;-61
2023/06/21 00:20:00;;;;;;;4.18;2.55;;;16.00;99.90;;;;;;5067582;28;20355;-60
2023/06/21 00:22:29;;;;;;;4.70;2.45;;;16.00;99.90;;;;;;5048037;28;20041;-63
2023/06/21 00:24:57;;;;;;;6.40;2.40;;;15.90;99.90;;;;;;5052966;28;20056;-60
2023/06/21 00:27:25;;;;;;;6.10;2.53;;;15.90;99.90;;;;;;5056366;28;20068;-62
2023/06/21 00:29:54;;;;;;;7.07;2.72;;;15.90;99.90;;;;;;5052933;28;20234;-69
2023/06/21 00:32:22;;;;;;;6.07;2.42;;;15.90;99.90;;;;;;5051712;28;20656;-67
2023/06/21 00:34:50;;;;;;;7.82;3.08;;;15.80;99.90;;;;;;5064755;28;20045;-64
2023/06/21 00:37:18;;;;;;;7.25;2.90;;;15.80;99.90;;;;;;5055119;28;20347;-66
2023/06/21 00:39:46;;;;;;;7.80;2.67;;;15.70;99.90;;;;;;5049756;28;20045;-68
2023/06/21 00:42:14;;;;;;;4.95;2.80;;;15.70;99.90;;;;;;5036926;28;20511;-68
2023/06/21 00:44:42;;;;;;;7.35;2.80;;;15.70;99.90;;;;;;5078332;28;20044;-70
2023/06/21 00:47:09;;;;;;;5.75;2.92;;;15.60;99.90;;;;;;5083353;28;20400;-70
2023/06/21 00:49:38;;;;;;;5.00;2.50;;;15.60;99.90;;;;;;5069087;28;20049;-69
2023/06/21 00:52:07;;;;;;;5.47;3.03;;;15.50;99.90;;;;;;5063843;28;20048;-70
2023/06/21 00:54:36;;;;;;;4.20;2.78;;;15.60;99.90;;;;;;5058627;28;20047;-70
2023/06/21 00:57:04;;;;;;;4.70;3.10;;;15.60;99.90;;;;;;5051105;28;20063;-70
2023/06/21 00:59:32;;;;;;;5.47;2.65;;;15.60;99.90;;;;;;5064206;28;20055;-63
2023/06/21 01:02:03;;;;;;;4.30;3.08;;;15.60;99.90;;;;;;5069638;28;20469;-70
2023/06/21 01:04:33;;;;;;;4.18;2.72;;;15.60;99.90;;;;;;5066661;28;20045;-68
2023/06/21 01:07:10;;;;;;;9.57;2.70;;;15.60;99.90;;;;;;5053967;28;20436;-68
2023/06/21 01:10:02;;;;;;;8.45;3.17;;;15.70;99.90;;;;;;5057542;28;20045;-69
2023/06/21 01:12:40;;;;;;;6.63;3.13;;;15.70;99.90;;;;;;5054945;28;20055;-67
2023/06/21 01:15:19;;;;;;;7.13;3.20;;;15.70;99.90;;;;;;5059255;28;20374;-69
2023/06/21 01:17:56;;;;;;;7.22;3.00;;;15.70;99.90;;;;;;5049980;28;20500;-63
2023/06/21 01:20:29;;;;;;;8.68;3.30;;;15.60;99.90;;;;;;5066359;28;20045;-69
2023/06/21 01:23:19;;;;;;;3.75;2.97;;;15.70;99.90;;;;;;5050838;28;20064;-69
2023/06/21 01:26:05;;;;;;;4.33;3.10;;;15.70;99.90;;;;;;5068136;28;20059;-67
2023/06/21 01:29:03;;;;;;;7.82;3.17;;;15.70;99.90;;;;;;5065313;28;20305;-63
2023/06/21 01:31:32;;;;;;;4.00;2.97;;;15.60;99.90;;;;;;5062160;28;20037;-62
2023/06/21 01:34:01;;;;;;;8.63;3.60;;;15.60;99.90;;;;;;5051153;28;20053;-61
2023/06/21 01:36:29;;;;;;;8.07;3.30;;;15.60;99.90;;;;;;5071884;28;20079;-61
2023/06/21 01:38:56;;;;;;;7.50;3.22;;;15.60;99.90;;;;;;5057335;28;20499;-63
2023/06/21 01:41:25;;;;;;;4.55;3.10;;;15.70;99.90;;;;;;5055559;28;20504;-60
2023/06/21 01:43:58;;;;;;;5.47;3.13;;;15.70;99.90;;;;;;5069718;28;20055;-69
2023/06/21 01:46:26;;;;;;;6.07;3.25;;;15.60;99.90;;;;;;5052796;28;20057;-66
2023/06/21 01:48:58;;;;;;;5.32;3.33;;;15.70;99.90;;;;;;5064803;28;20519;-65
2023/06/21 01:51:26;;;;;;;5.35;3.38;;;15.70;99.90;;;;;;5053087;28;20056;-68
2023/06/21 01:53:55;;;;;;;7.95;3.30;;;15.70;99.90;;;;;;5050912;28;20055;-70
2023/06/21 01:56:25;;;;;;;7.07;4.00;;;15.70;99.90;;;;;;5068343;28;20045;-60
2023/06/21 01:58:52;;;;;;;8.98;4.05;;;15.70;99.90;;;;;;5070355;28;20524;-60
2023/06/21 02:01:21;;;;;;;6.93;4.00;;;15.70;99.90;;;;;;5085334;28;20476;-60
2023/06/21 02:03:59;;;;;;;8.73;4.00;;;15.70;99.90;;;;;;5059254;28;20405;-59
2023/06/21 02:06:32;;;;;;;9.45;3.50;;;15.70;99.90;;;;;;5091157;28;20040;-60
2023/06/21 02:09:01;;;;;;;8.00;3.38;;;15.80;99.90;;;;;;5061132;28;20037;-61
2023/06/21 02:11:29;;;;;;;7.35;3.65;;;15.80;99.90;;;;;;5053227;28;20045;-60
2023/06/21 02:14:00;;;;;;;7.65;3.58;;;15.70;99.90;;;;;;5069844;28;20049;-60
2023/06/21 02:16:32;;;;;;;5.43;3.08;;;15.80;99.90;;;;;;5057610;28;20048;-60
2023/06/21 02:19:03;;;;;;;7.45;3.50;;;15.70;99.90;;;;;;5057773;28;20045;-60
2023/06/21 02:21:31;;;;;;;5.53;3.28;;;15.70;99.90;;;;;;5051371;28;20607;-59
2023/06/21 02:23:59;;;;;;;4.22;3.47;;;15.70;99.90;;;;;;5051143;28;20037;-60
2023/06/21 02:26:27;;;;;;;10.98;3.72;;;15.70;99.90;;;;;;5056359;28;20053;-60
2023/06/21 02:28:54;;;;;;;8.10;4.13;;;15.70;99.90;;;;;;5064427;28;20052;-59
2023/06/21 02:31:22;;;;;;;8.57;3.30;;;15.70;99.90;;;;;;5052463;28;20481;-60
2023/06/21 02:33:50;;;;;;;13.20;4.40;;;15.70;99.90;;;;;;5060350;28;20052;-60
2023/06/21 02:36:18;;;;;;;8.38;3.95;;;15.70;99.90;;;;;;5079112;28;20060;-59
2023/06/21 02:38:46;;;;;;;6.43;4.03;;;15.70;99.90;;;;;;5070728;28;20037;-61
2023/06/21 02:41:13;;;;;;;6.75;3.53;;;15.70;99.90;;;;;;5054979;28;20059;-61
2023/06/21 02:43:41;;;;;;;9.23;3.95;;;15.60;99.90;;;;;;5057488;28;20049;-59
2023/06/21 02:46:08;;;;;;;6.10;3.35;;;15.60;99.90;;;;;;5052141;28;20052;-60
2023/06/21 02:48:36;;;;;;;8.20;3.58;;;15.50;99.90;;;;;;5053948;28;20040;-60
2023/06/21 02:51:04;;;;;;;5.80;3.55;;;15.50;99.90;;;;;;5050267;28;20400;-60
2023/06/21 02:53:31;;;;;;;9.90;3.47;;;15.40;99.90;;;;;;5054442;28;20411;-60
2023/06/21 02:55:59;;;;;;;6.85;3.50;;;15.40;99.90;;;;;;5063549;28;20053;-60
2023/06/21 02:58:27;;;;;;;9.00;3.70;;;15.30;99.90;;;;;;5059351;28;20033;-61
2023/06/21 03:00:58;;;;;;;9.82;3.85;;;15.30;99.90;;;;;;5085524;28;20063;-59
2023/06/21 03:03:26;;;;;;;6.75;4.28;;;15.20;99.90;;;;;;5091855;28;20055;-69
2023/06/21 03:05:55;;;;;;;8.35;3.97;;;15.20;99.90;;;;;;5078688;28;20055;-68
2023/06/21 03:08:23;;;;;;;8.50;4.15;;;15.10;99.90;;;;;;5057244;28;20523;-69
2023/06/21 03:10:50;;;;;;;7.07;4.47;;;15.10;99.90;;;;;;5070498;28;20040;-69
2023/06/21 03:13:18;;;;;;;9.38;4.03;;;15.00;99.90;;;;;;5063874;28;20052;-67
2023/06/21 03:15:45;;;;;;;8.55;4.05;;;15.00;99.90;;;;;;5051562;28;20059;-66
2023/06/21 03:18:15;;;;;;;7.18;3.72;;;15.00;99.90;;;;;;5064371;28;20048;-69
2023/06/21 03:20:46;;;;;;;6.35;3.50;;;14.90;99.90;;;;;;5068571;28;20404;-68
2023/06/21 03:23:14;;;;;;;5.70;4.10;;;14.90;99.90;;;;;;5055148;28;20040;-69
2023/06/21 03:25:42;;;;;;;8.82;3.92;;;14.80;99.90;;;;;;5050207;28;20037;-65
2023/06/21 03:28:11;;;;;;;5.85;4.40;;;14.80;99.90;;;;;;5051958;28;20045;-69
2023/06/21 03:30:39;;;;;;;9.52;4.30;;;14.70;99.90;;;;;;5072182;28;20504;-60
2023/06/21 03:33:07;;;;;;;9.93;4.20;;;14.70;99.90;;;;;;5070144;28;20056;-59
2023/06/21 03:35:34;;;;;;;8.18;3.78;;;14.70;99.90;;;;;;5070244;28;20059;-61
2023/06/21 03:38:02;;;;;;;9.13;4.03;;;14.60;99.90;;;;;;5062119;28;20045;-59
2023/06/21 03:40:36;;;;;;;13.90;4.80;;;14.60;99.90;;;;;;5063005;28;20036;-62
2023/06/21 03:43:04;;;;;;;10.25;4.40;;;14.60;99.90;;;;;;5067515;28;20051;-68
2023/06/21 03:45:32;;;;;;;9.77;4.22;;;14.50;99.90;;;;;;5049859;28;20547;-64
2023/06/21 03:48:05;;;;;;;8.90;4.55;;;14.50;99.90;;;;;;5070302;28;20063;-64
2023/06/21 03:50:34;;;;;;;13.05;4.68;;;14.50;99.90;;;;;;5069812;28;20040;-68
2023/06/21 03:53:03;;;;;;;8.88;4.43;;;14.50;99.90;;;;;;5070174;28;20044;-65
2023/06/21 03:55:32;;;;;;;8.98;4.65;;;14.50;99.90;;;;;;5059469;28;20044;-63
2023/06/21 03:57:59;;;;;;;9.43;4.25;;;14.50;99.90;;;;;;5049815;28;20052;-69
2023/06/21 04:00:27;;;;;;;7.93;4.40;;;14.40;99.90;;;;;;5059219;28;20041;-69
2023/06/21 04:02:55;;;;;;;7.53;4.68;;;14.40;99.90;;;;;;5060248;28;20056;-69
2023/06/21 04:05:23;;;;;;;10.27;4.55;;;14.40;99.90;;;;;;5055586;28;20048;-59
2023/06/21 04:07:50;;;;;;;14.45;4.88;;;14.40;99.90;;;;;;5073871;28;20053;-60
2023/06/21 04:10:18;;;;;;;8.50;4.50;;;14.40;99.90;;;;;;5072141;28;20387;-60
2023/06/21 04:12:46;;;;;;;9.20;4.28;;;14.40;99.90;;;;;;5067280;28;20064;-60
2023/06/21 04:15:15;;;;;;;11.85;5.97;;;14.40;99.90;;;;;;5057612;28;20049;-59
2023/06/21 04:17:43;;;;;;;11.60;4.68;;;14.40;99.90;;;;;;5068782;28;20055;-61
2023/06/21 04:20:13;;;;;;;7.97;4.25;;;14.40;99.90;;;;;;5059776;28;20404;-60
2023/06/21 04:22:42;;;;;;;8.43;4.70;;;14.40;99.90;;;;;;5056440;28;20088;-60
2023/06/21 04:25:10;;;;;;;8.70;4.00;;;14.40;99.90;;;;;;5073854;28;20055;-60
2023/06/21 04:27:45;;;;;;;8.57;4.53;;;14.40;99.90;;;;;;5073476;28;20060;-61
2023/06/21 04:30:14;;;;;;;9.55;4.70;;;14.30;99.90;;;;;;5066327;28;20515;-60
2023/06/21 04:32:45;;;;;;;12.30;4.88;;;14.40;99.90;;;;;;5073381;28;20045;-60
2023/06/21 04:35:15;;;;;;;6.47;4.50;;;14.40;99.90;;;;;;5067176;28;20048;-60
2023/06/21 04:37:44;;;;;;;7.85;4.35;;;14.40;99.90;;;;;;5074285;28;20048;-60
2023/06/21 04:40:17;;;;;;;13.25;4.72;;;14.40;99.90;;;;;;5071395;28;20492;-59
2023/06/21 04:42:54;;;;;;;14.23;4.45;;;14.40;99.90;;;;;;5063857;28;20056;-59
2023/06/21 04:45:22;;;;;;;7.40;4.32;;;14.40;99.90;;;;;;5063126;28;20056;-59
2023/06/21 04:47:50;;;;;;;13.52;4.13;;;14.30;99.90;;;;;;5048991;28;20056;-60
2023/06/21 04:50:19;;;;;;;9.07;4.40;;;14.30;99.90;;;;;;5056776;28;20056;-59
2023/06/21 04:52:50;;;;;;;11.63;4.85;;;14.30;99.90;;;;;;5062221;28;20524;-60
2023/06/21 04:55:18;;;;;;;9.18;4.47;;;14.30;99.90;;;;;;5052880;28;20488;-59
2023/06/21 04:57:47;;;;;;;9.35;5.05;;;14.30;99.90;;;;;;5060563;28;20040;-59
2023/06/21 05:00:17;;;;;;;10.45;5.30;;;14.20;99.90;;;;;;5050107;28;20045;-59
2023/06/21 05:02:47;;;;;;;10.60;4.95;;;14.20;99.90;;;;;;5055845;28;20044;-60
2023/06/21 05:05:15;;;;;;;15.32;5.68;;;14.20;99.90;;;;;;5051368;28;20059;-65
2023/06/21 05:07:43;;;;;;;14.10;5.22;;;14.20;99.90;;;;;;5051543;28;20049;-68
2023/06/21 05:10:11;;;;;;;10.55;5.63;;;14.20;99.90;;;;;;5062521;28;20041;-66
2023/06/21 05:12:38;;;;;;;10.20;6.10;;;14.30;99.90;;;;;;5059513;28;20059;-68
2023/06/21 05:15:06;;;;;;;12.68;6.05;;;14.20;99.90;;;;;;5067167;28;20048;-69
2023/06/21 05:17:35;;;;;;;15.52;4.90;;;14.30;99.90;;;;;;5058021;28;20045;-69
2023/06/21 05:20:04;;;;;;;14.20;4.78;;;14.30;99.90;;;;;;5068349;28;20044;-68
2023/06/21 05:22:32;;;;;;;9.27;5.75;;;14.30;99.90;;;;;;5047045;28;20208;-65
2023/06/21 05:25:02;;;;;;;7.47;4.85;;;14.40;99.90;;;;;;5047341;28;20052;-62
2023/06/21 05:27:31;;;;;;;14.50;6.20;;;14.40;99.90;;;;;;5066294;28;20063;-67
2023/06/21 05:29:59;;;;;;;12.77;5.80;;;14.40;99.90;;;;;;5069061;28;20045;-68
2023/06/21 05:32:28;;;;;;;10.98;5.55;;;14.40;99.90;;;;;;5065853;28;20526;-65
2023/06/21 05:34:56;;;;;;;12.20;6.55;;;14.40;99.90;;;;;;5070547;28;20044;-68
2023/06/21 05:37:24;;;;;;;11.65;6.10;;;14.50;99.90;;;;;;5059798;28;20052;-69
2023/06/21 05:39:51;;;;;;;13.95;6.00;;;14.50;99.90;;;;;;5061448;28;20415;-67
2023/06/21 05:42:19;;;;;;;9.20;5.88;;;14.50;99.90;;;;;;5064413;28;20203;-68
2023/06/21 05:44:46;;;;;;;9.52;6.00;;;14.50;99.90;;;;;;5056134;28;20041;-67
2023/06/21 05:47:14;;;;;;;11.48;5.95;;;14.60;99.90;;;;;;5066672;28;20056;-69
2023/06/21 05:49:42;;;;;;;10.93;5.88;;;14.70;99.90;;;;;;5068772;28;20056;-60
2023/06/21 05:52:10;;;;;;;8.20;4.97;;;14.70;99.90;;;;;;5062402;28;20043;-65
2023/06/21 05:54:41;;;;;;;9.10;5.10;;;14.80;99.90;;;;;;5066841;28;20500;-66
2023/06/21 05:57:10;;;;;;;9.48;5.22;;;15.00;99.90;;;;;;5064316;28;20387;-67
2023/06/21 05:59:38;;;;;;;8.40;4.40;;;14.90;99.90;;;;;;5063238;28;20044;-63
2023/06/21 06:02:06;;;;;;;14.18;5.22;;;15.00;99.90;;;;;;5060773;28;20048;-61
2023/06/21 06:04:34;;;;;;;12.77;4.40;;;15.10;99.90;;;;;;5060307;28;20044;-64
2023/06/21 06:07:01;;;;;;;8.10;4.93;;;15.20;99.90;;;;;;5069057;28;20036;-59
2023/06/21 06:09:30;;;;;;;8.40;4.20;;;15.20;99.90;;;;;;5053891;28;20049;-60
2023/06/21 06:11:57;;;;;;;5.45;3.50;;;15.30;99.90;;;;;;5048925;28;20487;-62
2023/06/21 06:14:26;;;;;;;8.18;3.67;;;15.40;99.90;;;;;;5068685;28;20053;-63
2023/06/21 06:16:53;;;;;;;7.28;4.15;;;15.50;99.90;;;;;;5021857;28;1140977;-60
2023/06/21 06:19:21;;;;;;;6.43;3.40;;;15.40;99.90;;;;;;5065371;28;20052;-62
2023/06/21 06:21:50;;;;;;;9.10;4.45;;;15.50;99.90;;;;;;5066045;28;20049;-62
2023/06/21 06:24:17;;;;;;;8.55;4.10;;;15.60;99.90;;;;;;5061321;28;20492;-62
2023/06/21 06:26:45;;;;;;;5.50;3.20;;;15.70;99.90;;;;;;5051511;28;20041;-60
2023/06/21 06:29:13;;;;;;;6.78;3.58;;;15.70;99.90;;;;;;5059242;28;20055;-61
2023/06/21 06:31:41;;;;;;;7.07;3.65;;;15.80;99.90;;;;;;5055796;28;20048;-61
2023/06/21 06:34:08;;;;;;;6.43;3.00;;;15.80;99.90;;;;;;5052592;28;20052;-62
2023/06/21 06:36:36;;;;;;;9.75;3.67;;;15.90;99.90;;;;;;5066238;28;20055;-66
2023/06/21 06:39:06;;;;;;;4.07;3.30;;;15.90;99.90;;;;;;5075059;28;20048;-65
2023/06/21 06:41:33;;;;;;;6.90;3.70;;;16.00;99.90;;;;;;5060460;28;20043;-66
2023/06/21 06:44:05;;;;;;;5.70;3.50;;;16.10;99.90;;;;;;5063646;28;20063;-68
2023/06/21 06:46:33;;;;;;;5.03;3.10;;;16.10;99.90;;;;;;5062089;28;20041;-62
2023/06/21 06:49:01;;;;;;;7.82;3.15;;;16.20;99.90;;;;;;5056721;28;20316;-62
2023/06/21 06:51:29;;;;;;;7.50;4.03;;;16.20;99.90;;;;;;5056817;28;20032;-61
2023/06/21 06:53:57;;;;;;;5.22;3.72;;;16.20;99.90;;;;;;5044777;28;20052;-59
2023/06/21 06:56:28;;;;;;;7.32;4.05;;;16.30;99.90;;;;;;5064112;28;20060;-60
2023/06/21 06:58:56;;;;;;;7.93;3.83;;;16.30;99.90;;;;;;5054814;28;20629;-61
2023/06/21 07:01:27;;;;;;;9.07;3.38;;;16.30;99.90;;;;;;5052323;28;20412;-61
2023/06/21 07:03:56;;;;;;;5.35;3.47;;;16.40;99.90;;;;;;5048747;28;20045;-60
2023/06/21 07:06:24;;;;;;;12.27;3.93;;;16.40;99.90;;;;;;5079408;28;20063;-62
2023/06/21 07:08:52;;;;;;;7.82;4.13;;;16.60;99.90;;;;;;5060135;28;20316;-62
2023/06/21 07:11:20;;;;;;;6.60;3.22;;;16.60;99.90;;;;;;5069798;28;20051;-61
2023/06/21 07:13:48;;;;;;;8.05;3.28;;;16.60;99.90;;;;;;5071230;28;20045;-60
2023/06/21 07:16:15;;;;;;;8.60;3.80;;;16.70;99.90;;;;;;5056970;28;20052;-66
2023/06/21 07:18:43;;;;;;;3.70;2.78;;;16.70;99.90;;;;;;5062542;28;20040;-60
2023/06/21 07:21:11;;;;;;;8.60;3.85;;;16.80;99.90;;;;;;5062298;28;20049;-60
2023/06/21 07:23:39;;;;;;;4.97;3.60;;;16.80;99.90;;;;;;5062563;28;20051;-61
2023/06/21 07:26:08;;;;;;;7.15;3.10;;;16.90;99.90;;;;;;5068138;28;20052;-60
2023/06/21 07:28:35;;;;;;;8.18;4.07;;;17.00;99.90;;;;;;5081244;28;20739;-61
2023/06/21 07:31:05;;;;;;;4.28;3.00;;;17.00;99.90;;;;;;5080923;28;20051;-60
2023/06/21 07:33:33;;;;;;;9.35;3.88;;;17.00;99.90;;;;;;5058945;28;20052;-60
2023/06/21 07:36:01;;;;;;;5.78;3.58;;;17.10;99.90;;;;;;5062849;28;20052;-61
2023/06/21 07:38:29;;;;;;;8.27;3.42;;;17.20;99.90;;;;;;5060775;28;20064;-62
2023/06/21 07:40:56;;;;;;;7.32;4.13;;;17.30;99.90;;;;;;5057522;28;20040;-61
2023/06/21 07:43:24;;;;;;;6.05;3.25;;;17.40;99.90;;;;;;5062376;28;20057;-60
2023/06/21 07:45:52;;;;;;;7.22;3.53;;;17.40;99.90;;;;;;5048134;28;20508;-60
2023/06/21 07:48:39;;;;;;;8.10;3.42;;;17.50;99.90;;;;;;5051310;28;20045;-68
2023/06/21 07:51:07;;;;;;;7.65;4.30;;;17.60;99.90;;;;;;5047941;28;20098;-67
2023/06/21 07:53:35;;;;;;;11.10;3.63;;;17.70;99.90;;;;;;5051073;28;20526;-66
2023/06/21 07:56:02;;;;;;;5.97;3.10;;;17.80;99.90;;;;;;5048504;28;20055;-60
2023/06/21 07:58:30;;;;;;;5.80;3.20;;;17.90;99.90;;;;;;5049867;28;20557;-67
2023/06/21 08:00:58;;;;;;;4.70;3.08;;;18.00;99.90;;;;;;5051386;28;20041;-64
2023/06/21 08:03:26;;;;;;;6.47;3.70;;;18.00;99.90;;;;;;5057500;28;20056;-62
2023/06/21 08:05:53;;;;;;;7.63;3.20;;;18.10;99.90;;;;;;5056535;28;20045;-60
2023/06/21 08:08:21;;;;;;;8.55;3.72;;;18.30;99.90;;;;;;5058357;28;20060;-61
2023/06/21 08:10:49;;;;;;;9.10;3.30;;;18.30;99.90;;;;;;5065326;28;20056;-58
2023/06/21 08:13:22;;;;;;;6.80;3.55;;;18.40;99.90;;;;;;5050686;28;20044;-59
2023/06/21 08:15:51;;;;;;;5.38;3.40;;;18.50;99.90;;;;;;5046503;28;20049;-67
2023/06/21 08:18:19;;;;;;;5.30;3.47;;;18.70;99.90;;;;;;5058308;28;20055;-59
2023/06/21 08:20:47;;;;;;;4.63;3.10;;;18.80;99.90;;;;;;5065090;28;20409;-61
2023/06/21 08:23:15;;;;;;;9.63;3.88;;;18.90;99.90;;;;;;5061162;28;20056;-60
2023/06/21 08:25:45;;;;;;;6.93;4.07;;;18.80;99.90;;;;;;5059238;28;20049;-60
2023/06/21 08:28:13;;;;;;;7.45;3.78;;;18.90;99.90;;;;;;5051843;28;20431;-65
2023/06/21 08:30:40;;;;;;;9.63;4.03;;;18.90;99.90;;;;;;5046927;28;20041;-68
2023/06/21 08:33:09;;;;;;;6.70;4.05;;;19.00;99.90;;;;;;5064869;28;20059;-61
2023/06/21 08:35:40;;;;;;;7.45;3.45;;;19.10;99.90;;;;;;5068476;28;20048;-66
2023/06/21 08:38:08;;;;;;;5.00;3.50;;;19.00;99.90;;;;;;5064176;28;20546;-61
2023/06/21 08:41:02;;;;;;;5.07;3.40;;;19.10;99.90;;;;;;5047911;28;20045;-61
2023/06/21 08:43:30;;;;;;;8.50;3.58;;;19.20;99.90;;;;;;5066874;28;20052;-63
2023/06/21 08:46:03;;;;;;;6.55;3.35;;;19.20;99.90;;;;;;5046629;28;20319;-61
2023/06/21 08:48:36;;;;;;;6.20;3.53;;;19.30;99.90;;;;;;5064350;28;20055;-60
2023/06/21 08:51:05;;;;;;;7.95;3.60;;;19.40;99.90;;;;;;5062300;28;20431;-60
2023/06/21 08:53:47;;;;;;;2.95;2.30;;;19.60;99.90;;;;;;5057812;28;20079;-61
2023/06/21 08:56:23;;;;;;;3.80;2.78;;;19.80;99.90;;;;;;5065736;28;20053;-63
2023/06/21 08:59:05;;;;;;;6.85;3.53;;;19.90;99.90;;;;;;5058572;28;20056;-64
2023/06/21 09:01:45;;;;;;;6.00;3.50;;;20.10;99.90;;;;;;5046987;28;20045;-63
2023/06/21 09:04:16;;;;;;;5.82;2.92;;;20.20;99.90;;;;;;5050139;28;20040;-59
2023/06/21 09:06:45;;;;;;;7.68;3.30;;;20.20;99.90;;;;;;5057056;28;20798;-66
2023/06/21 09:09:13;;;;;;;5.00;2.70;;;20.20;99.90;;;;;;5059881;28;20067;-62
2023/06/21 09:11:42;;;;;;;5.53;3.08;;;20.30;99.90;;;;;;5058652;28;20047;-62
2023/06/21 09:14:10;;;;;;;8.20;2.67;;;20.30;99.90;;;;;;5072082;28;20048;-60
2023/06/21 09:16:39;;;;;;;4.68;2.80;;;20.40;99.90;;;;;;5059201;28;20328;-61
2023/06/21 09:19:07;;;;;;;11.85;3.00;;;20.40;99.90;;;;;;5065756;28;20056;-61
2023/06/21 09:21:35;;;;;;;5.72;2.70;;;20.40;99.90;;;;;;5058843;28;20481;-61
2023/06/21 09:24:03;;;;;;;3.08;2.28;;;20.40;99.90;;;;;;5063409;28;20044;-61
2023/06/21 09:26:31;;;;;;;4.43;2.42;;;20.40;99.90;;;;;;5070103;28;20041;-61
2023/06/21 09:28:59;;;;;;;3.70;2.17;;;20.30;99.90;;;;;;5068137;28;20049;-64
2023/06/21 09:31:27;;;;;;;4.30;2.47;;;20.20;99.90;;;;;;5052521;28;20036;-62
2023/06/21 09:33:56;;;;;;;4.45;2.80;;;20.30;99.90;;;;;;5068588;28;20057;-62
2023/06/21 09:36:25;;;;;;;4.13;2.60;;;20.30;99.90;;;;;;5067159;28;20049;-63
2023/06/21 09:39:07;;;;;;;3.92;2.03;;;20.40;99.90;;;;;;5062681;28;20297;-61
2023/06/21 09:41:35;;;;;;;4.70;2.13;;;20.50;99.90;;;;;;5062427;28;21094;-62
2023/06/21 09:44:03;;;;;;;7.43;2.55;;;20.60;99.90;;;;;;5051533;28;20045;-65
2023/06/21 09:46:31;;;;;;;4.25;2.10;;;20.70;99.90;;;;;;5046117;28;20064;-62
2023/06/21 09:49:08;;;;;;;3.50;2.33;;;21.00;99.90;;;;;;5051435;28;20048;-64
2023/06/21 09:51:44;;;;;;;3.60;2.15;;;21.00;99.90;;;;;;5064267;28;20055;-66
2023/06/21 09:54:12;;;;;;;5.10;2.15;;;21.00;99.90;;;;;;5043177;28;20044;-62
2023/06/21 09:56:39;;;;;;;4.10;1.80;;;21.00;99.90;;;;;;5048988;28;20045;-62
2023/06/21 09:59:15;;;;;;;5.15;2.10;;;20.90;99.90;;;;;;5057116;28;20037;-62
2023/06/21 10:01:47;;;;;;;3.70;2.10;;;20.80;99.90;;;;;;5048010;28;20399;-65
2023/06/21 10:04:17;;;;;;;3.95;2.05;;;20.90;99.90;;;;;;5078598;28;20060;-61
2023/06/21 10:06:54;;;;;;;5.22;2.67;;;21.10;99.90;;;;;;5089778;28;20063;-61
2023/06/21 10:09:22;;;;;;;4.32;2.30;;;21.20;99.90;;;;;;5066564;28;20056;-62
2023/06/21 10:11:54;;;;;;;3.65;2.45;;;21.40;99.90;;;;;;5067661;28;20052;-61
2023/06/21 10:14:29;;;;;;;5.00;2.10;;;21.60;99.90;;;;;;5060777;28;20075;-59
2023/06/21 10:16:57;;;;;;;3.58;1.90;;;21.80;99.90;;;;;;5066676;28;20057;-62
2023/06/21 10:19:29;;;;;;;4.60;2.00;;;22.10;99.90;;;;;;5059519;28;20385;-61
2023/06/21 10:22:08;;;;;;;4.15;2.00;;;22.20;99.90;;;;;;5046494;28;20048;-62
2023/06/21 10:24:42;;;;;;;3.27;1.53;;;22.30;99.90;;;;;;5050679;28;20056;-63
2023/06/21 10:27:10;;;;;;;4.15;2.50;;;22.20;99.90;;;;;;5051795;28;20087;-58
2023/06/21 10:29:42;;;;;;;5.93;2.20;;;22.10;99.90;;;;;;5049664;28;20045;-59
2023/06/21 10:32:11;;;;;;;3.13;1.85;;;22.10;99.90;;;;;;5048641;28;20509;-60
2023/06/21 10:34:55;;;;;;;5.00;2.08;;;21.70;99.90;;;;;;5064148;28;20048;-59
2023/06/21 10:37:34;;;;;;;3.08;1.48;;;21.60;99.90;;;;;;5053336;28;20528;-59
2023/06/21 10:40:06;;;;;;;3.47;2.10;;;21.40;99.90;;;;;;5059690;28;20049;-59
2023/06/21 10:42:39;;;;;;;5.53;2.00;;;21.40;99.90;;;;;;5056525;28;20047;-60
2023/06/21 10:45:09;;;;;;;4.40;1.95;;;21.50;99.90;;;;;;5068695;28;20565;-61
2023/06/21 10:47:39;;;;;;;2.53;2.10;;;21.70;99.90;;;;;;5055986;28;20041;-59
2023/06/21 10:50:08;;;;;;;3.05;2.03;;;22.00;99.90;;;;;;5054206;28;20393;-59
2023/06/21 10:52:37;;;;;;;6.43;2.20;;;22.20;99.90;;;;;;5056685;28;20048;-60
2023/06/21 10:55:06;;;;;;;2.88;1.80;;;22.40;99.90;;;;;;5047444;28;20293;-59
2023/06/21 10:57:34;;;;;;;3.35;2.00;;;22.70;99.90;;;;;;5056307;28;20057;-67
2023/06/21 11:00:07;;;;;;;3.33;1.95;;;22.90;99.90;;;;;;5054280;28;20377;-64
2023/06/21 11:02:35;;;;;;;4.00;1.90;;;23.10;99.90;;;;;;5051413;28;20041;-60
2023/06/21 11:05:17;;;;;;;3.65;1.80;;;23.20;99.90;;;;;;5075342;28;20056;-59
2023/06/21 11:07:57;;;;;;;4.55;2.00;;;23.10;99.90;;;;;;5071416;28;20056;-59
2023/06/21 11:10:41;;;;;;;3.17;1.90;;;23.00;99.90;;;;;;5053523;28;20428;-59
2023/06/21 11:13:10;;;;;;;1.88;1.70;;;23.10;99.90;;;;;;5061632;28;20048;-60
2023/06/21 11:15:39;;;;;;;3.90;1.70;;;23.10;99.90;;;;;;5047836;28;20056;-60
2023/06/21 11:18:09;;;;;;;4.37;2.53;;;23.10;99.90;;;;;;5047666;28;20041;-60
2023/06/21 11:20:51;;;;;;;4.32;1.73;;;23.00;99.90;;;;;;5056465;28;20071;-59
2023/06/21 11:23:22;;;;;;;5.80;1.88;;;22.80;99.90;;;;;;5061648;28;20036;-59
2023/06/21 11:25:50;;;;;;;4.50;2.00;;;22.80;99.90;;;;;;5066128;28;20067;-59
2023/06/21 11:28:17;;;;;;;2.67;1.83;;;22.90;99.90;;;;;;5057628;28;20055;-59
2023/06/21 11:31:02;;;;;;;3.58;2.00;;;23.10;99.90;;;;;;5052755;28;20052;-60
2023/06/21 11:33:51;;;;;;;3.60;1.75;;;23.40;99.90;;;;;;5048308;28;20083;-60
2023/06/21 11:36:30;;;;;;;1.65;1.52;;;23.70;99.90;;;;;;5042903;28;20073;-60
2023/06/21 11:39:01;;;;;;;2.55;1.50;;;23.90;99.90;;;;;;5047144;28;20045;-60
2023/06/21 11:41:40;;;;;;;3.78;2.05;;;24.20;99.90;;;;;;5050419;28;20028;-60
2023/06/21 11:44:10;;;;;;;2.05;1.67;;;24.30;99.90;;;;;;5042797;28;20053;-60
2023/06/21 11:46:45;;;;;;;7.85;2.00;;;24.30;99.90;;;;;;5055381;28;20037;-59
2023/06/21 11:49:13;;;;;;;3.28;1.75;;;24.30;99.90;;;;;;5051683;28;20508;-61
2023/06/21 11:52:04;;;;;;;3.15;1.20;;;24.40;99.90;;;;;;5046574;28;20059;-60
2023/06/21 11:54:36;;;;;;;3.38;1.60;;;24.70;99.90;;;;;;5050635;28;20041;-59
2023/06/21 11:57:07;;;;;;;3.17;1.48;;;25.30;99.90;;;;;;5047079;28;20037;-62
2023/06/21 11:59:36;;;;;;;4.50;1.50;;;25.30;99.90;;;;;;5047188;28;20037;-69
2023/06/21 12:02:17;;;;;;;1.60;1.50;;;25.60;99.90;;;;;;5050719;28;20056;-69
2023/06/21 12:04:44;;;;;;;3.35;1.77;;;25.70;99.80;;;;;;5061098;28;20055;-68
2023/06/21 12:07:14;;;;;;;2.50;1.75;;;25.80;99.90;;;;;;5074532;28;20047;-69
2023/06/21 12:09:49;;;;;;;5.93;1.90;;;25.90;98.90;;;;;;5047829;28;20056;-61
2023/06/21 12:12:25;;;;;;;3.03;1.20;;;26.10;99.90;;;;;;5056833;28;20051;-61
2023/06/21 12:14:57;;;;;;;2.25;1.73;;;26.30;98.40;;;;;;5052419;28;20049;-61
2023/06/21 12:17:24;;;;;;;4.03;1.65;;;26.30;98.30;;;;;;5052471;28;20068;-59
2023/06/21 12:19:56;;;;;;;2.05;1.40;;;26.50;99.20;;;;;;5048883;28;20049;-59
2023/06/21 12:22:24;;;;;;;2.90;1.52;;;26.80;99.10;;;;;;5048248;28;20048;-64
2023/06/21 12:24:54;;;;;;;1.60;1.40;;;27.10;97.60;;;;;;5062289;28;20048;-60
2023/06/21 12:27:22;;;;;;;2.40;1.40;;;27.10;97.30;;;;;;5068610;28;20527;-61
2023/06/21 12:29:50;;;;;;;4.68;1.73;;;27.40;97.00;;;;;;5065532;28;20049;-64
2023/06/21 12:32:20;;;;;;;1.73;1.38;;;27.70;96.40;;;;;;5067436;28;20045;-69
2023/06/21 12:34:48;;;;;;;2.25;1.25;;;27.80;95.20;;;;;;5064803;28;20475;-59
2023/06/21 12:37:20;;;;;;;2.47;1.30;;;27.70;94.50;;;;;;5068164;28;20411;-61
2023/06/21 12:39:53;;;;;;;2.90;1.60;;;27.50;93.60;;;;;;5071011;28;20048;-70
2023/06/21 12:42:27;;;;;;;1.48;1.30;;;27.30;94.10;;;;;;5065356;28;20052;-70
2023/06/21 12:44:57;;;;;;;3.10;1.58;;;27.30;93.90;;;;;;5071466;28;20057;-72
2023/06/21 12:47:25;;;;;;;2.57;2.03;;;27.20;94.50;;;;;;5066480;28;20047;-68
2023/06/21 12:50:02;;;;;;;4.05;1.42;;;27.10;94.80;;;;;;5054101;28;20392;-67
2023/06/21 12:52:30;;;;;;;2.15;1.35;;;27.30;94.00;;;;;;5060191;28;20048;-69
2023/06/21 12:54:58;;;;;;;3.88;1.85;;;27.50;94.10;;;;;;5070371;28;20056;-68
2023/06/21 12:57:31;;;;;;;4.53;1.70;;;27.80;93.80;;;;;;5058483;28;20529;-68
2023/06/21 12:59:59;;;;;;;5.72;1.65;;;28.10;93.10;;;;;;5070913;28;20472;-69